sensor_id;sensor_type;location;lat;lon;timestamp;P1;durP1;ratioP1;P2;durP2;ratioP2
72427;SDS011;60419;48.880;18.036;2023-05-10T00:00:03;3.70;;;1.83;;
72427;SDS011;60419;48.880;18.036;2023-05-10T00:02:49;3.72;;;2.00;;
72427;SDS011;60419;48.880;18.036;2023-05-10T00:05:35;5.32;;;2.35;;
72427;SDS011;60419;48.880;18.036;2023-05-10T00:08:20;2.88;;;1.67;;
72427;SDS011;60419;48.880;18.036;2023-05-10T00:11:05;3.92;;;1.70;;
72427;SDS011;60419;48.880;18.036;2023-05-10T00:13:51;3.53;;;1.98;;
72427;SDS011;60419;48.880;18.036;2023-05-10T00:16:36;3.80;;;2.10;;
72427;SDS011;60419;48.880;18.036;2023-05-10T00:19:22;6.53;;;1.75;;
72427;SDS011;60419;48.880;18.036;2023-05-10T00:22:07;4.15;;;1.95;;
72427;SDS011;60419;48.880;18.036;2023-05-10T00:24:52;3.75;;;2.05;;
72427;SDS011;60419;48.880;18.036;2023-05-10T00:27:38;2.97;;;1.70;;
72427;SDS011;60419;48.880;18.036;2023-05-10T00:30:23;4.47;;;1.80;;
72427;SDS011;60419;48.880;18.036;2023-05-10T00:33:09;3.28;;;2.00;;
72427;SDS011;60419;48.880;18.036;2023-05-10T00:35:54;4.63;;;1.98;;
72427;SDS011;60419;48.880;18.036;2023-05-10T00:38:39;4.00;;;1.92;;
72427;SDS011;60419;48.880;18.036;2023-05-10T00:41:25;5.40;;;1.92;;
72427;SDS011;60419;48.880;18.036;2023-05-10T00:44:10;5.30;;;1.95;;
72427;SDS011;60419;48.880;18.036;2023-05-10T00:46:56;4.88;;;2.55;;
72427;SDS011;60419;48.880;18.036;2023-05-10T00:49:43;3.75;;;1.85;;
72427;SDS011;60419;48.880;18.036;2023-05-10T00:52:28;4.57;;;2.20;;
72427;SDS011;60419;48.880;18.036;2023-05-10T00:55:15;3.53;;;2.47;;
72427;SDS011;60419;48.880;18.036;2023-05-10T00:58:00;3.53;;;2.10;;
72427;SDS011;60419;48.880;18.036;2023-05-10T01:00:46;3.90;;;2.10;;
72427;SDS011;60419;48.880;18.036;2023-05-10T01:03:33;3.88;;;2.00;;
72427;SDS011;60419;48.880;18.036;2023-05-10T01:06:18;4.05;;;2.20;;
72427;SDS011;60419;48.880;18.036;2023-05-10T01:09:04;4.10;;;2.22;;
72427;SDS011;60419;48.880;18.036;2023-05-10T01:11:49;3.58;;;1.90;;
72427;SDS011;60419;48.880;18.036;2023-05-10T01:14:35;3.70;;;2.30;;
72427;SDS011;60419;48.880;18.036;2023-05-10T01:17:21;3.83;;;2.10;;
72427;SDS011;60419;48.880;18.036;2023-05-10T01:20:07;4.05;;;2.15;;
72427;SDS011;60419;48.880;18.036;2023-05-10T01:23:01;3.92;;;2.13;;
72427;SDS011;60419;48.880;18.036;2023-05-10T01:35:03;4.32;;;2.40;;
72427;SDS011;60419;48.880;18.036;2023-05-10T01:41:13;3.92;;;2.20;;
72427;SDS011;60419;48.880;18.036;2023-05-10T01:46:58;3.75;;;2.20;;
72427;SDS011;60419;48.880;18.036;2023-05-10T01:49:56;5.43;;;2.35;;
72427;SDS011;60419;48.880;18.036;2023-05-10T01:52:56;4.65;;;2.00;;
72427;SDS011;60419;48.880;18.036;2023-05-10T01:55:48;4.18;;;2.30;;
72427;SDS011;60419;48.880;18.036;2023-05-10T01:58:35;5.05;;;2.22;;
72427;SDS011;60419;48.880;18.036;2023-05-10T02:01:23;4.88;;;2.15;;
72427;SDS011;60419;48.880;18.036;2023-05-10T02:04:11;4.10;;;2.08;;
72427;SDS011;60419;48.880;18.036;2023-05-10T02:07:00;7.05;;;2.10;;
72427;SDS011;60419;48.880;18.036;2023-05-10T02:09:47;4.72;;;2.20;;
72427;SDS011;60419;48.880;18.036;2023-05-10T02:12:36;5.20;;;2.38;;
72427;SDS011;60419;48.880;18.036;2023-05-10T02:15:24;4.20;;;2.17;;
72427;SDS011;60419;48.880;18.036;2023-05-10T02:18:11;4.78;;;2.13;;
72427;SDS011;60419;48.880;18.036;2023-05-10T02:20:58;7.32;;;2.30;;
72427;SDS011;60419;48.880;18.036;2023-05-10T02:23:45;3.88;;;2.25;;
72427;SDS011;60419;48.880;18.036;2023-05-10T02:26:33;6.65;;;2.45;;
72427;SDS011;60419;48.880;18.036;2023-05-10T02:29:20;4.00;;;2.28;;
72427;SDS011;60419;48.880;18.036;2023-05-10T02:32:08;3.72;;;2.22;;
72427;SDS011;60419;48.880;18.036;2023-05-10T02:34:55;4.22;;;2.20;;
72427;SDS011;60419;48.880;18.036;2023-05-10T02:37:42;5.25;;;2.22;;
72427;SDS011;60419;48.880;18.036;2023-05-10T02:40:30;4.65;;;2.50;;
72427;SDS011;60419;48.880;18.036;2023-05-10T02:43:17;5.50;;;2.50;;
72427;SDS011;60419;48.880;18.036;2023-05-10T02:46:03;5.45;;;2.20;;
72427;SDS011;60419;48.880;18.036;2023-05-10T02:48:49;3.85;;;2.35;;
72427;SDS011;60419;48.880;18.036;2023-05-10T02:51:35;5.20;;;2.42;;
72427;SDS011;60419;48.880;18.036;2023-05-10T02:54:24;5.53;;;2.33;;
72427;SDS011;60419;48.880;18.036;2023-05-10T02:57:19;5.07;;;2.30;;
72427;SDS011;60419;48.880;18.036;2023-05-10T03:00:12;4.72;;;2.30;;
72427;SDS011;60419;48.880;18.036;2023-05-10T03:02:58;6.45;;;2.30;;
72427;SDS011;60419;48.880;18.036;2023-05-10T03:05:43;4.50;;;2.60;;
72427;SDS011;60419;48.880;18.036;2023-05-10T03:08:29;5.75;;;2.30;;
72427;SDS011;60419;48.880;18.036;2023-05-10T03:17:36;3.55;;;2.15;;
72427;SDS011;60419;48.880;18.036;2023-05-10T03:20:29;4.03;;;2.20;;
72427;SDS011;60419;48.880;18.036;2023-05-10T03:23:40;6.90;;;2.38;;
72427;SDS011;60419;48.880;18.036;2023-05-10T03:26:28;6.40;;;2.38;;
72427;SDS011;60419;48.880;18.036;2023-05-10T03:29:14;4.47;;;2.10;;
72427;SDS011;60419;48.880;18.036;2023-05-10T03:32:00;3.70;;;2.13;;
72427;SDS011;60419;48.880;18.036;2023-05-10T03:34:46;4.28;;;2.30;;
72427;SDS011;60419;48.880;18.036;2023-05-10T03:37:31;4.57;;;2.40;;
72427;SDS011;60419;48.880;18.036;2023-05-10T03:40:16;3.53;;;2.20;;
72427;SDS011;60419;48.880;18.036;2023-05-10T03:43:02;4.70;;;2.30;;
72427;SDS011;60419;48.880;18.036;2023-05-10T03:45:47;4.32;;;2.40;;
72427;SDS011;60419;48.880;18.036;2023-05-10T03:48:33;4.45;;;2.40;;
72427;SDS011;60419;48.880;18.036;2023-05-10T03:51:18;3.60;;;2.10;;
72427;SDS011;60419;48.880;18.036;2023-05-10T03:54:04;4.28;;;2.35;;
72427;SDS011;60419;48.880;18.036;2023-05-10T03:56:49;4.93;;;2.60;;
72427;SDS011;60419;48.880;18.036;2023-05-10T03:59:34;4.13;;;2.42;;
72427;SDS011;60419;48.880;18.036;2023-05-10T04:02:20;6.13;;;2.88;;
72427;SDS011;60419;48.880;18.036;2023-05-10T04:05:05;6.93;;;2.67;;
72427;SDS011;60419;48.880;18.036;2023-05-10T04:07:51;4.90;;;2.90;;
72427;SDS011;60419;48.880;18.036;2023-05-10T04:10:36;4.45;;;2.80;;
72427;SDS011;60419;48.880;18.036;2023-05-10T04:13:22;5.18;;;2.58;;
72427;SDS011;60419;48.880;18.036;2023-05-10T04:16:07;5.20;;;2.63;;
72427;SDS011;60419;48.880;18.036;2023-05-10T04:18:53;4.35;;;2.78;;
72427;SDS011;60419;48.880;18.036;2023-05-10T04:21:38;6.00;;;2.47;;
72427;SDS011;60419;48.880;18.036;2023-05-10T04:24:23;5.28;;;2.55;;
72427;SDS011;60419;48.880;18.036;2023-05-10T04:27:09;6.63;;;2.30;;
72427;SDS011;60419;48.880;18.036;2023-05-10T04:29:57;5.78;;;2.55;;
72427;SDS011;60419;48.880;18.036;2023-05-10T04:32:42;7.00;;;2.60;;
72427;SDS011;60419;48.880;18.036;2023-05-10T04:35:28;4.57;;;2.55;;
72427;SDS011;60419;48.880;18.036;2023-05-10T04:38:13;6.25;;;2.70;;
72427;SDS011;60419;48.880;18.036;2023-05-10T04:41:05;4.15;;;2.47;;
72427;SDS011;60419;48.880;18.036;2023-05-10T04:43:52;4.90;;;2.80;;
72427;SDS011;60419;48.880;18.036;2023-05-10T04:46:37;4.90;;;2.88;;
72427;SDS011;60419;48.880;18.036;2023-05-10T04:49:23;4.35;;;2.50;;
72427;SDS011;60419;48.880;18.036;2023-05-10T04:52:08;3.90;;;2.20;;
72427;SDS011;60419;48.880;18.036;2023-05-10T04:54:53;7.28;;;2.67;;
72427;SDS011;60419;48.880;18.036;2023-05-10T04:57:39;5.10;;;2.50;;
72427;SDS011;60419;48.880;18.036;2023-05-10T05:00:24;4.30;;;2.60;;
72427;SDS011;60419;48.880;18.036;2023-05-10T05:03:10;6.50;;;2.72;;
72427;SDS011;60419;48.880;18.036;2023-05-10T05:05:55;6.03;;;2.78;;
72427;SDS011;60419;48.880;18.036;2023-05-10T05:08:41;4.85;;;2.55;;
72427;SDS011;60419;48.880;18.036;2023-05-10T05:11:26;3.90;;;2.30;;
72427;SDS011;60419;48.880;18.036;2023-05-10T05:14:11;4.38;;;2.78;;
72427;SDS011;60419;48.880;18.036;2023-05-10T05:16:57;3.83;;;2.10;;
72427;SDS011;60419;48.880;18.036;2023-05-10T05:19:42;4.93;;;2.65;;
72427;SDS011;60419;48.880;18.036;2023-05-10T05:22:27;5.18;;;3.15;;
72427;SDS011;60419;48.880;18.036;2023-05-10T05:25:13;4.75;;;2.50;;
72427;SDS011;60419;48.880;18.036;2023-05-10T05:28:00;4.18;;;2.55;;
72427;SDS011;60419;48.880;18.036;2023-05-10T05:30:45;5.18;;;2.58;;
72427;SDS011;60419;48.880;18.036;2023-05-10T05:33:31;6.07;;;2.80;;
72427;SDS011;60419;48.880;18.036;2023-05-10T05:36:16;5.15;;;2.53;;
72427;SDS011;60419;48.880;18.036;2023-05-10T05:39:02;5.20;;;2.60;;
72427;SDS011;60419;48.880;18.036;2023-05-10T05:41:47;5.00;;;2.50;;
72427;SDS011;60419;48.880;18.036;2023-05-10T05:44:32;4.00;;;2.53;;
72427;SDS011;60419;48.880;18.036;2023-05-10T05:47:18;4.97;;;2.70;;
72427;SDS011;60419;48.880;18.036;2023-05-10T05:50:03;4.68;;;2.60;;
72427;SDS011;60419;48.880;18.036;2023-05-10T05:52:49;5.22;;;3.08;;
72427;SDS011;60419;48.880;18.036;2023-05-10T05:55:35;5.03;;;2.67;;
72427;SDS011;60419;48.880;18.036;2023-05-10T05:58:24;5.70;;;2.67;;
72427;SDS011;60419;48.880;18.036;2023-05-10T06:01:09;5.53;;;3.03;;
72427;SDS011;60419;48.880;18.036;2023-05-10T06:03:55;4.32;;;2.55;;
72427;SDS011;60419;48.880;18.036;2023-05-10T06:06:40;6.90;;;2.88;;
72427;SDS011;60419;48.880;18.036;2023-05-10T06:09:26;5.28;;;3.08;;
72427;SDS011;60419;48.880;18.036;2023-05-10T06:12:11;4.28;;;2.15;;
72427;SDS011;60419;48.880;18.036;2023-05-10T06:14:57;4.57;;;2.50;;
72427;SDS011;60419;48.880;18.036;2023-05-10T06:17:42;3.83;;;2.55;;
72427;SDS011;60419;48.880;18.036;2023-05-10T06:20:29;4.65;;;2.55;;
72427;SDS011;60419;48.880;18.036;2023-05-10T06:23:16;4.47;;;2.30;;
72427;SDS011;60419;48.880;18.036;2023-05-10T06:26:01;4.15;;;2.42;;
72427;SDS011;60419;48.880;18.036;2023-05-10T06:28:47;6.00;;;2.40;;
72427;SDS011;60419;48.880;18.036;2023-05-10T06:31:32;4.53;;;2.58;;
72427;SDS011;60419;48.880;18.036;2023-05-10T06:34:18;5.50;;;2.50;;
72427;SDS011;60419;48.880;18.036;2023-05-10T06:37:03;4.45;;;2.50;;
72427;SDS011;60419;48.880;18.036;2023-05-10T06:39:48;5.10;;;2.25;;
72427;SDS011;60419;48.880;18.036;2023-05-10T06:42:34;4.78;;;2.40;;
72427;SDS011;60419;48.880;18.036;2023-05-10T06:45:19;6.00;;;2.42;;
72427;SDS011;60419;48.880;18.036;2023-05-10T06:48:05;4.50;;;2.60;;
72427;SDS011;60419;48.880;18.036;2023-05-10T06:50:50;6.25;;;3.00;;
72427;SDS011;60419;48.880;18.036;2023-05-10T06:53:36;4.65;;;2.20;;
72427;SDS011;60419;48.880;18.036;2023-05-10T06:56:21;4.45;;;2.45;;
72427;SDS011;60419;48.880;18.036;2023-05-10T06:59:07;3.58;;;2.30;;
72427;SDS011;60419;48.880;18.036;2023-05-10T07:01:52;4.97;;;2.40;;
72427;SDS011;60419;48.880;18.036;2023-05-10T07:04:38;4.20;;;2.00;;
72427;SDS011;60419;48.880;18.036;2023-05-10T07:07:24;4.00;;;2.10;;
72427;SDS011;60419;48.880;18.036;2023-05-10T07:10:09;6.45;;;2.20;;
72427;SDS011;60419;48.880;18.036;2023-05-10T07:12:55;4.75;;;2.20;;
72427;SDS011;60419;48.880;18.036;2023-05-10T07:15:40;6.38;;;2.40;;
72427;SDS011;60419;48.880;18.036;2023-05-10T07:18:26;4.40;;;2.25;;
72427;SDS011;60419;48.880;18.036;2023-05-10T07:21:11;4.10;;;1.88;;
72427;SDS011;60419;48.880;18.036;2023-05-10T07:23:56;3.78;;;2.05;;
72427;SDS011;60419;48.880;18.036;2023-05-10T07:26:42;4.57;;;2.10;;
72427;SDS011;60419;48.880;18.036;2023-05-10T07:29:27;4.82;;;1.90;;
72427;SDS011;60419;48.880;18.036;2023-05-10T07:32:13;3.92;;;2.10;;
72427;SDS011;60419;48.880;18.036;2023-05-10T07:34:59;3.42;;;1.80;;
72427;SDS011;60419;48.880;18.036;2023-05-10T07:37:44;3.08;;;1.85;;
72427;SDS011;60419;48.880;18.036;2023-05-10T07:40:30;4.45;;;2.10;;
72427;SDS011;60419;48.880;18.036;2023-05-10T07:43:15;3.42;;;1.75;;
72427;SDS011;60419;48.880;18.036;2023-05-10T07:46:00;4.80;;;2.15;;
72427;SDS011;60419;48.880;18.036;2023-05-10T07:48:46;3.15;;;1.75;;
72427;SDS011;60419;48.880;18.036;2023-05-10T07:51:31;4.15;;;2.00;;
72427;SDS011;60419;48.880;18.036;2023-05-10T07:54:17;4.47;;;2.25;;
72427;SDS011;60419;48.880;18.036;2023-05-10T07:57:03;4.50;;;2.13;;
72427;SDS011;60419;48.880;18.036;2023-05-10T07:59:48;2.90;;;1.90;;
72427;SDS011;60419;48.880;18.036;2023-05-10T08:02:35;5.40;;;1.98;;
72427;SDS011;60419;48.880;18.036;2023-05-10T08:05:21;3.13;;;1.85;;
72427;SDS011;60419;48.880;18.036;2023-05-10T08:08:06;4.72;;;2.25;;
72427;SDS011;60419;48.880;18.036;2023-05-10T08:10:52;2.63;;;1.60;;
72427;SDS011;60419;48.880;18.036;2023-05-10T08:13:37;3.17;;;1.55;;
72427;SDS011;60419;48.880;18.036;2023-05-10T08:16:22;3.80;;;1.73;;
72427;SDS011;60419;48.880;18.036;2023-05-10T08:19:08;5.03;;;2.08;;
72427;SDS011;60419;48.880;18.036;2023-05-10T08:21:53;3.65;;;1.60;;
72427;SDS011;60419;48.880;18.036;2023-05-10T08:24:40;4.75;;;2.00;;
72427;SDS011;60419;48.880;18.036;2023-05-10T08:27:26;3.47;;;1.48;;
72427;SDS011;60419;48.880;18.036;2023-05-10T08:30:12;4.10;;;1.80;;
72427;SDS011;60419;48.880;18.036;2023-05-10T08:32:57;4.15;;;1.90;;
72427;SDS011;60419;48.880;18.036;2023-05-10T08:35:43;3.90;;;1.95;;
72427;SDS011;60419;48.880;18.036;2023-05-10T08:38:28;3.10;;;1.90;;
72427;SDS011;60419;48.880;18.036;2023-05-10T08:41:14;3.40;;;1.67;;
72427;SDS011;60419;48.880;18.036;2023-05-10T08:43:59;3.05;;;1.55;;
72427;SDS011;60419;48.880;18.036;2023-05-10T08:46:49;3.38;;;1.65;;
72427;SDS011;60419;48.880;18.036;2023-05-10T08:49:39;2.53;;;1.57;;
72427;SDS011;60419;48.880;18.036;2023-05-10T08:52:25;2.50;;;1.50;;
72427;SDS011;60419;48.880;18.036;2023-05-10T08:55:12;3.75;;;1.60;;
72427;SDS011;60419;48.880;18.036;2023-05-10T08:57:58;10.15;;;1.77;;
72427;SDS011;60419;48.880;18.036;2023-05-10T09:00:43;3.08;;;1.73;;
72427;SDS011;60419;48.880;18.036;2023-05-10T09:03:29;4.05;;;1.60;;
72427;SDS011;60419;48.880;18.036;2023-05-10T09:06:15;5.00;;;1.73;;
72427;SDS011;60419;48.880;18.036;2023-05-10T09:09:02;3.80;;;1.70;;
72427;SDS011;60419;48.880;18.036;2023-05-10T09:11:48;2.45;;;1.60;;
72427;SDS011;60419;48.880;18.036;2023-05-10T09:14:33;4.65;;;1.63;;
72427;SDS011;60419;48.880;18.036;2023-05-10T09:17:21;3.97;;;1.65;;
72427;SDS011;60419;48.880;18.036;2023-05-10T09:20:09;4.82;;;1.60;;
72427;SDS011;60419;48.880;18.036;2023-05-10T09:22:54;2.97;;;1.50;;
72427;SDS011;60419;48.880;18.036;2023-05-10T09:25:42;3.45;;;1.60;;
72427;SDS011;60419;48.880;18.036;2023-05-10T09:28:31;3.40;;;1.90;;
72427;SDS011;60419;48.880;18.036;2023-05-10T09:31:17;4.35;;;1.50;;
72427;SDS011;60419;48.880;18.036;2023-05-10T09:34:02;2.63;;;1.75;;
72427;SDS011;60419;48.880;18.036;2023-05-10T09:36:54;4.03;;;1.63;;
72427;SDS011;60419;48.880;18.036;2023-05-10T09:39:41;3.40;;;1.67;;
72427;SDS011;60419;48.880;18.036;2023-05-10T09:42:26;4.40;;;1.45;;
72427;SDS011;60419;48.880;18.036;2023-05-10T09:45:12;3.95;;;1.50;;
72427;SDS011;60419;48.880;18.036;2023-05-10T09:47:58;4.10;;;1.73;;
72427;SDS011;60419;48.880;18.036;2023-05-10T09:50:44;2.90;;;1.73;;
72427;SDS011;60419;48.880;18.036;2023-05-10T09:53:29;3.92;;;1.75;;
72427;SDS011;60419;48.880;18.036;2023-05-10T09:56:20;2.95;;;1.65;;
72427;SDS011;60419;48.880;18.036;2023-05-10T09:59:19;3.10;;;1.70;;
72427;SDS011;60419;48.880;18.036;2023-05-10T10:02:04;3.65;;;1.88;;
72427;SDS011;60419;48.880;18.036;2023-05-10T10:04:50;5.32;;;1.80;;
72427;SDS011;60419;48.880;18.036;2023-05-10T10:07:36;3.05;;;1.63;;
72427;SDS011;60419;48.880;18.036;2023-05-10T10:10:21;2.85;;;1.60;;
72427;SDS011;60419;48.880;18.036;2023-05-10T10:13:07;3.55;;;1.58;;
72427;SDS011;60419;48.880;18.036;2023-05-10T10:15:53;3.03;;;1.70;;
72427;SDS011;60419;48.880;18.036;2023-05-10T10:18:39;3.45;;;1.80;;
72427;SDS011;60419;48.880;18.036;2023-05-10T10:21:26;6.72;;;1.70;;
72427;SDS011;60419;48.880;18.036;2023-05-10T10:24:12;3.95;;;1.70;;
72427;SDS011;60419;48.880;18.036;2023-05-10T10:27:01;2.85;;;1.50;;
72427;SDS011;60419;48.880;18.036;2023-05-10T10:36:39;3.35;;;1.70;;
72427;SDS011;60419;48.880;18.036;2023-05-10T10:39:25;3.75;;;1.70;;
72427;SDS011;60419;48.880;18.036;2023-05-10T10:42:11;3.20;;;1.42;;
72427;SDS011;60419;48.880;18.036;2023-05-10T10:45:30;4.03;;;1.80;;
72427;SDS011;60419;48.880;18.036;2023-05-10T10:48:22;4.50;;;1.83;;
72427;SDS011;60419;48.880;18.036;2023-05-10T10:51:08;4.13;;;2.05;;
72427;SDS011;60419;48.880;18.036;2023-05-10T10:53:53;2.78;;;1.80;;
72427;SDS011;60419;48.880;18.036;2023-05-10T10:56:39;4.13;;;1.73;;
72427;SDS011;60419;48.880;18.036;2023-05-10T10:59:27;3.70;;;1.60;;
72427;SDS011;60419;48.880;18.036;2023-05-10T11:08:31;2.17;;;1.40;;
72427;SDS011;60419;48.880;18.036;2023-05-10T11:11:17;4.07;;;1.60;;
72427;SDS011;60419;48.880;18.036;2023-05-10T11:14:06;3.60;;;1.70;;
72427;SDS011;60419;48.880;18.036;2023-05-10T11:16:52;3.97;;;1.70;;
72427;SDS011;60419;48.880;18.036;2023-05-10T11:19:37;2.70;;;1.60;;
72427;SDS011;60419;48.880;18.036;2023-05-10T11:22:54;3.13;;;1.73;;
72427;SDS011;60419;48.880;18.036;2023-05-10T11:25:43;3.28;;;1.48;;
72427;SDS011;60419;48.880;18.036;2023-05-10T11:28:29;3.30;;;1.70;;
72427;SDS011;60419;48.880;18.036;2023-05-10T11:31:18;2.88;;;1.70;;
72427;SDS011;60419;48.880;18.036;2023-05-10T11:34:05;3.78;;;1.80;;
72427;SDS011;60419;48.880;18.036;2023-05-10T11:36:50;4.28;;;1.65;;
72427;SDS011;60419;48.880;18.036;2023-05-10T11:39:38;3.58;;;1.65;;
72427;SDS011;60419;48.880;18.036;2023-05-10T11:42:30;4.68;;;2.15;;
72427;SDS011;60419;48.880;18.036;2023-05-10T11:45:16;4.20;;;1.40;;
72427;SDS011;60419;48.880;18.036;2023-05-10T11:48:02;4.63;;;1.50;;
72427;SDS011;60419;48.880;18.036;2023-05-10T11:50:47;6.18;;;1.35;;
72427;SDS011;60419;48.880;18.036;2023-05-10T11:53:33;3.20;;;1.50;;
72427;SDS011;60419;48.880;18.036;2023-05-10T11:56:18;2.33;;;1.27;;
72427;SDS011;60419;48.880;18.036;2023-05-10T11:59:06;4.20;;;1.38;;
72427;SDS011;60419;48.880;18.036;2023-05-10T12:01:52;2.20;;;1.30;;
72427;SDS011;60419;48.880;18.036;2023-05-10T12:04:38;2.55;;;1.40;;
72427;SDS011;60419;48.880;18.036;2023-05-10T12:07:25;2.80;;;1.65;;
72427;SDS011;60419;48.880;18.036;2023-05-10T12:10:11;3.63;;;1.58;;
72427;SDS011;60419;48.880;18.036;2023-05-10T12:13:04;5.22;;;1.80;;
72427;SDS011;60419;48.880;18.036;2023-05-10T12:15:49;2.75;;;1.50;;
72427;SDS011;60419;48.880;18.036;2023-05-10T12:18:35;3.22;;;1.50;;
72427;SDS011;60419;48.880;18.036;2023-05-10T12:21:25;1.92;;;1.33;;
72427;SDS011;60419;48.880;18.036;2023-05-10T12:24:11;4.03;;;1.50;;
72427;SDS011;60419;48.880;18.036;2023-05-10T12:26:57;2.70;;;1.40;;
72427;SDS011;60419;48.880;18.036;2023-05-10T12:29:43;4.28;;;1.58;;
72427;SDS011;60419;48.880;18.036;2023-05-10T12:32:38;4.57;;;1.65;;
72427;SDS011;60419;48.880;18.036;2023-05-10T12:35:25;5.70;;;1.60;;
72427;SDS011;60419;48.880;18.036;2023-05-10T12:41:19;3.30;;;1.73;;
72427;SDS011;60419;48.880;18.036;2023-05-10T12:44:06;3.63;;;1.42;;
72427;SDS011;60419;48.880;18.036;2023-05-10T12:46:51;2.13;;;1.40;;
72427;SDS011;60419;48.880;18.036;2023-05-10T12:49:36;4.00;;;1.33;;
72427;SDS011;60419;48.880;18.036;2023-05-10T12:52:22;2.75;;;1.60;;
72427;SDS011;60419;48.880;18.036;2023-05-10T12:55:07;2.50;;;1.48;;
72427;SDS011;60419;48.880;18.036;2023-05-10T12:57:53;8.27;;;1.80;;
72427;SDS011;60419;48.880;18.036;2023-05-10T13:00:38;3.78;;;1.50;;
72427;SDS011;60419;48.880;18.036;2023-05-10T13:03:24;4.82;;;1.50;;
72427;SDS011;60419;48.880;18.036;2023-05-10T13:06:10;2.42;;;1.40;;
72427;SDS011;60419;48.880;18.036;2023-05-10T13:08:55;2.10;;;1.40;;
72427;SDS011;60419;48.880;18.036;2023-05-10T13:11:42;2.50;;;1.38;;
72427;SDS011;60419;48.880;18.036;2023-05-10T13:14:27;1.98;;;1.30;;
72427;SDS011;60419;48.880;18.036;2023-05-10T13:17:14;2.72;;;1.20;;
72427;SDS011;60419;48.880;18.036;2023-05-10T13:19:59;3.33;;;1.50;;
72427;SDS011;60419;48.880;18.036;2023-05-10T13:22:45;4.22;;;1.40;;
72427;SDS011;60419;48.880;18.036;2023-05-10T13:25:31;2.90;;;1.42;;
72427;SDS011;60419;48.880;18.036;2023-05-10T13:28:16;3.33;;;1.15;;
72427;SDS011;60419;48.880;18.036;2023-05-10T13:31:02;4.03;;;1.45;;
72427;SDS011;60419;48.880;18.036;2023-05-10T13:33:47;4.22;;;1.55;;
72427;SDS011;60419;48.880;18.036;2023-05-10T13:36:33;2.88;;;1.40;;
72427;SDS011;60419;48.880;18.036;2023-05-10T13:39:19;2.80;;;1.38;;
72427;SDS011;60419;48.880;18.036;2023-05-10T13:42:05;2.30;;;1.45;;
72427;SDS011;60419;48.880;18.036;2023-05-10T13:44:51;3.88;;;1.30;;
72427;SDS011;60419;48.880;18.036;2023-05-10T13:47:36;3.63;;;1.40;;
72427;SDS011;60419;48.880;18.036;2023-05-10T13:50:22;7.25;;;2.17;;
72427;SDS011;60419;48.880;18.036;2023-05-10T13:53:07;1.92;;;1.30;;
72427;SDS011;60419;48.880;18.036;2023-05-10T13:55:52;3.72;;;1.40;;
72427;SDS011;60419;48.880;18.036;2023-05-10T13:58:38;3.85;;;1.30;;
72427;SDS011;60419;48.880;18.036;2023-05-10T14:01:23;3.97;;;1.30;;
72427;SDS011;60419;48.880;18.036;2023-05-10T14:04:09;3.28;;;1.30;;
72427;SDS011;60419;48.880;18.036;2023-05-10T14:06:55;2.35;;;1.35;;
72427;SDS011;60419;48.880;18.036;2023-05-10T14:09:41;2.20;;;1.38;;
72427;SDS011;60419;48.880;18.036;2023-05-10T14:12:26;2.63;;;1.42;;
72427;SDS011;60419;48.880;18.036;2023-05-10T14:15:12;2.35;;;1.30;;
72427;SDS011;60419;48.880;18.036;2023-05-10T14:17:58;3.88;;;1.48;;
72427;SDS011;60419;48.880;18.036;2023-05-10T14:20:43;2.35;;;1.40;;
72427;SDS011;60419;48.880;18.036;2023-05-10T14:23:29;1.73;;;1.10;;
72427;SDS011;60419;48.880;18.036;2023-05-10T14:26:15;2.83;;;1.42;;
72427;SDS011;60419;48.880;18.036;2023-05-10T14:29:01;4.28;;;1.50;;
72427;SDS011;60419;48.880;18.036;2023-05-10T14:31:46;2.17;;;1.30;;
72427;SDS011;60419;48.880;18.036;2023-05-10T14:34:31;2.38;;;1.60;;
72427;SDS011;60419;48.880;18.036;2023-05-10T14:37:17;4.63;;;1.30;;
72427;SDS011;60419;48.880;18.036;2023-05-10T14:40:03;3.83;;;1.33;;
72427;SDS011;60419;48.880;18.036;2023-05-10T14:42:49;1.98;;;1.10;;
72427;SDS011;60419;48.880;18.036;2023-05-10T14:45:35;2.42;;;1.42;;
72427;SDS011;60419;48.880;18.036;2023-05-10T14:48:20;4.00;;;1.40;;
72427;SDS011;60419;48.880;18.036;2023-05-10T14:51:06;10.10;;;2.97;;
72427;SDS011;60419;48.880;18.036;2023-05-10T14:53:51;2.17;;;1.15;;
72427;SDS011;60419;48.880;18.036;2023-05-10T14:56:37;3.33;;;1.40;;
72427;SDS011;60419;48.880;18.036;2023-05-10T14:59:22;2.03;;;1.20;;
72427;SDS011;60419;48.880;18.036;2023-05-10T15:02:08;3.38;;;1.30;;
72427;SDS011;60419;48.880;18.036;2023-05-10T15:04:54;3.20;;;1.30;;
72427;SDS011;60419;48.880;18.036;2023-05-10T15:07:39;2.25;;;1.25;;
72427;SDS011;60419;48.880;18.036;2023-05-10T15:10:25;2.10;;;1.30;;
72427;SDS011;60419;48.880;18.036;2023-05-10T15:13:10;1.70;;;1.20;;
72427;SDS011;60419;48.880;18.036;2023-05-10T15:15:55;2.72;;;1.30;;
72427;SDS011;60419;48.880;18.036;2023-05-10T15:18:41;3.15;;;1.40;;
72427;SDS011;60419;48.880;18.036;2023-05-10T15:21:26;1.95;;;1.20;;
72427;SDS011;60419;48.880;18.036;2023-05-10T15:24:12;3.65;;;1.20;;
72427;SDS011;60419;48.880;18.036;2023-05-10T15:26:57;3.47;;;1.23;;
72427;SDS011;60419;48.880;18.036;2023-05-10T15:29:43;2.40;;;1.50;;
72427;SDS011;60419;48.880;18.036;2023-05-10T15:32:28;2.05;;;1.25;;
72427;SDS011;60419;48.880;18.036;2023-05-10T15:35:14;2.92;;;1.40;;
72427;SDS011;60419;48.880;18.036;2023-05-10T15:37:59;2.55;;;1.50;;
72427;SDS011;60419;48.880;18.036;2023-05-10T15:40:45;1.88;;;1.40;;
72427;SDS011;60419;48.880;18.036;2023-05-10T15:43:30;2.35;;;1.33;;
72427;SDS011;60419;48.880;18.036;2023-05-10T15:46:16;2.25;;;1.23;;
72427;SDS011;60419;48.880;18.036;2023-05-10T15:49:01;2.38;;;1.27;;
72427;SDS011;60419;48.880;18.036;2023-05-10T15:51:47;2.90;;;1.20;;
72427;SDS011;60419;48.880;18.036;2023-05-10T15:54:33;5.43;;;1.50;;
72427;SDS011;60419;48.880;18.036;2023-05-10T15:57:18;2.60;;;1.50;;
72427;SDS011;60419;48.880;18.036;2023-05-10T16:00:04;2.55;;;1.40;;
72427;SDS011;60419;48.880;18.036;2023-05-10T16:02:51;2.33;;;1.20;;
72427;SDS011;60419;48.880;18.036;2023-05-10T16:05:37;5.15;;;1.20;;
72427;SDS011;60419;48.880;18.036;2023-05-10T16:08:23;3.60;;;1.25;;
72427;SDS011;60419;48.880;18.036;2023-05-10T16:11:08;1.50;;;1.10;;
72427;SDS011;60419;48.880;18.036;2023-05-10T16:13:54;2.75;;;1.48;;
72427;SDS011;60419;48.880;18.036;2023-05-10T16:16:39;2.15;;;1.25;;
72427;SDS011;60419;48.880;18.036;2023-05-10T16:19:25;2.35;;;1.33;;
72427;SDS011;60419;48.880;18.036;2023-05-10T16:22:11;2.55;;;1.33;;
72427;SDS011;60419;48.880;18.036;2023-05-10T16:24:56;3.00;;;1.70;;
72427;SDS011;60419;48.880;18.036;2023-05-10T16:27:41;3.83;;;1.50;;
72427;SDS011;60419;48.880;18.036;2023-05-10T16:30:28;3.20;;;1.45;;
72427;SDS011;60419;48.880;18.036;2023-05-10T16:33:15;2.97;;;1.50;;
72427;SDS011;60419;48.880;18.036;2023-05-10T16:36:00;3.85;;;1.60;;
72427;SDS011;60419;48.880;18.036;2023-05-10T16:38:46;2.83;;;1.88;;
72427;SDS011;60419;48.880;18.036;2023-05-10T16:41:32;2.97;;;1.30;;
72427;SDS011;60419;48.880;18.036;2023-05-10T16:44:18;4.22;;;1.83;;
72427;SDS011;60419;48.880;18.036;2023-05-10T16:47:03;2.75;;;1.50;;
72427;SDS011;60419;48.880;18.036;2023-05-10T16:49:48;3.20;;;1.35;;
72427;SDS011;60419;48.880;18.036;2023-05-10T16:52:34;3.05;;;1.33;;
72427;SDS011;60419;48.880;18.036;2023-05-10T16:55:20;2.92;;;1.50;;
72427;SDS011;60419;48.880;18.036;2023-05-10T16:58:06;5.28;;;1.38;;
72427;SDS011;60419;48.880;18.036;2023-05-10T17:00:51;2.22;;;1.33;;
72427;SDS011;60419;48.880;18.036;2023-05-10T17:03:37;2.60;;;1.40;;